Time;durP1;ratioP1;P1;durP2;ratioP2;P2;SDS_P1;SDS_P2;PMS_P1;PMS_P2;Temp;Humidity;BMP_temperature;BMP_pressure;BME280_temperature;BME280_humidity;BME280_pressure;Samples;Min_cycle;Max_cycle;Signal;HPM_P1;HPM_P2
2021/01/16 00:00:23;;;;;;;;;;;;;;;0.27;100.00;100734.41;5117361;28;19924;-76
2021/01/16 00:02:49;;;;;;;;;;;;;;;0.36;100.00;100738.81;5117075;28;19928;-76
2021/01/16 00:05:17;;;;;;;;;;;;;;;0.26;100.00;100730.03;5116987;28;19931;-76
2021/01/16 00:07:44;;;;;;;;;;;;;;;0.23;100.00;100720.47;5115651;28;19988;-76
2021/01/16 00:10:13;;;;;;;;;;;;;;;0.31;100.00;100730.69;5116868;28;19928;-76
2021/01/16 00:12:40;;;;;;;;;;;;;;;0.51;100.00;100723.84;5098518;28;20495;-76
2021/01/16 00:15:06;;;;;;;;;;;;;;;0.44;100.00;100724.28;5116297;28;20279;-77
2021/01/16 00:17:33;;;;;;;;;;;;;;;0.44;100.00;100713.28;5115351;28;19923;-77
2021/01/16 00:19:59;;;;;;;;;;;;;;;0.48;100.00;100717.03;5115559;28;19923;-77
2021/01/16 00:22:26;;;;;;;;;;;;;;;0.54;100.00;100713.03;5115473;28;20001;-77
2021/01/16 00:24:53;;;;;;;;;;;;;;;0.52;100.00;100701.50;5116524;28;19953;-76
2021/01/16 00:27:19;;;;;;;;;;;;;;;0.57;100.00;100695.06;5115335;28;20032;-77
2021/01/16 00:29:46;;;;;;;;;;;;;;;0.43;100.00;100691.59;5114876;28;19951;-76
2021/01/16 00:32:12;;;;;;;;;;;;;;;0.55;100.00;100670.63;5098329;28;19923;-76
2021/01/16 00:34:39;;;;;;;;;;;;;;;0.56;100.00;100674.97;5116404;28;19976;-76
2021/01/16 00:37:06;;;;;;;;;;;;;;;0.53;100.00;100661.88;5098140;28;19996;-76
2021/01/16 00:39:32;;;;;;;;;;;;;;;0.47;100.00;100663.13;5097425;28;20358;-76
2021/01/16 00:41:59;;;;;;;;;;;;;;;0.57;100.00;100659.28;5116211;27;20405;-76
2021/01/16 00:44:25;;;;;;;;;;;;;;;0.54;100.00;100652.50;5114694;28;19962;-76
2021/01/16 00:46:52;;;;;;;;;;;;;;;0.73;100.00;100644.78;5116301;28;19935;-77
2021/01/16 00:49:20;;;;;;;;;;;;;;;0.82;100.00;100629.09;5114941;28;19924;-76
2021/01/16 00:51:46;;;;;;;;;;;;;;;0.91;100.00;100640.13;5114727;28;20002;-77
2021/01/16 00:54:13;;;;;;;;;;;;;;;0.93;100.00;100633.16;5114820;28;20018;-77
2021/01/16 00:56:39;;;;;;;;;;;;;;;0.80;100.00;100612.09;5115968;28;20005;-76
2021/01/16 00:59:13;;;;;;;;;;;;;;;0.87;100.00;100603.34;5114380;28;19992;-76
2021/01/16 01:01:50;;;;;;;;;;;;;;;0.93;100.00;100591.06;5097884;28;19976;-76
2021/01/16 01:04:17;;;;;;;;;;;;;;;0.77;100.00;100560.47;5097936;28;19931;-76
2021/01/16 01:06:43;;;;;;;;;;;;;;;0.72;100.00;100566.13;5115748;28;19923;-76
2021/01/16 01:09:09;;;;;;;;;;;;;;;0.75;100.00;100565.47;5114502;28;19924;-76
2021/01/16 01:11:36;;;;;;;;;;;;;;;0.71;100.00;100552.69;5115609;28;19931;-76
2021/01/16 01:14:02;;;;;;;;;;;;;;;0.75;100.00;100553.66;5097090;28;19924;-76
2021/01/16 01:16:29;;;;;;;;;;;;;;;0.85;100.00;100567.13;5114303;28;20022;-76
2021/01/16 01:18:55;;;;;;;;;;;;;;;0.86;100.00;100565.97;5115476;28;19931;-76
2021/01/16 01:21:22;;;;;;;;;;;;;;;0.86;100.00;100561.28;5114135;28;19923;-76
2021/01/16 01:23:48;;;;;;;;;;;;;;;0.83;100.00;100544.59;5115401;28;19940;-76
2021/01/16 01:26:15;;;;;;;;;;;;;;;0.95;100.00;100550.25;5114019;28;19976;-76
2021/01/16 01:28:41;;;;;;;;;;;;;;;0.90;100.00;100547.66;5113805;28;20362;-76
2021/01/16 01:31:08;;;;;;;;;;;;;;;0.96;100.00;100549.13;5115393;28;19923;-76
2021/01/16 01:33:34;;;;;;;;;;;;;;;1.02;100.00;100551.41;5115206;28;19924;-76
2021/01/16 01:36:01;;;;;;;;;;;;;;;1.02;100.00;100536.81;5113915;28;19935;-76
2021/01/16 01:38:27;;;;;;;;;;;;;;;0.98;100.00;100519.34;5115105;28;19923;-76
2021/01/16 01:40:58;;;;;;;;;;;;;;;1.05;100.00;100520.47;5114005;28;19943;-76
2021/01/16 01:43:24;;;;;;;;;;;;;;;0.96;100.00;100521.59;5114978;28;20008;-76
2021/01/16 01:45:51;;;;;;;;;;;;;;;0.91;100.00;100513.53;5114942;28;19934;-76
2021/01/16 01:48:18;;;;;;;;;;;;;;;0.80;100.00;100491.03;5114955;28;19924;-76
2021/01/16 01:50:44;;;;;;;;;;;;;;;0.87;100.00;100501.53;5114047;28;19924;-76
2021/01/16 01:53:12;;;;;;;;;;;;;;;0.97;100.00;100495.72;5114831;28;20360;-76
2021/01/16 01:55:40;;;;;;;;;;;;;;;1.00;100.00;100493.09;5115010;28;19924;-76
2021/01/16 01:58:14;;;;;;;;;;;;;;;0.97;100.00;100504.75;5113377;28;19924;-76
2021/01/16 02:00:41;;;;;;;;;;;;;;;1.01;100.00;100486.47;5114972;28;19963;-76
2021/01/16 02:03:10;;;;;;;;;;;;;;;1.05;100.00;100508.63;5113646;28;19924;-76
2021/01/16 02:05:37;;;;;;;;;;;;;;;0.98;100.00;100503.63;5113588;28;19924;-76
2021/01/16 02:08:04;;;;;;;;;;;;;;;1.05;100.00;100498.44;5114733;28;19930;-76
2021/01/16 02:10:33;;;;;;;;;;;;;;;1.02;100.00;100501.84;5113355;28;20019;-76
2021/01/16 02:12:59;;;;;;;;;;;;;;;1.09;100.00;100493.09;5113151;28;19924;-76
2021/01/16 02:15:32;;;;;;;;;;;;;;;1.06;100.00;100488.25;5114427;28;19927;-75
2021/01/16 02:18:00;;;;;;;;;;;;;;;1.10;100.00;100476.25;5096366;28;19924;-76
2021/01/16 02:20:28;;;;;;;;;;;;;;;1.15;100.00;100478.03;5113525;28;19931;-76
2021/01/16 02:23:02;;;;;;;;;;;;;;;1.14;100.00;100471.69;5113162;28;19982;-75
2021/01/16 02:25:52;;;;;;;;;;;;;;;1.16;100.00;100474.94;5114333;28;19927;-76
2021/01/16 02:28:21;;;;;;;;;;;;;;;1.26;100.00;100471.00;5100450;28;19927;-76
2021/01/16 02:30:48;;;;;;;;;;;;;;;1.27;100.00;100462.44;5114433;28;19924;-76
2021/01/16 02:33:17;;;;;;;;;;;;;;;1.30;100.00;100461.75;5113372;28;19963;-76
2021/01/16 02:35:51;;;;;;;;;;;;;;;1.29;100.00;100454.66;5114336;28;19923;-76
2021/01/16 02:38:26;;;;;;;;;;;;;;;1.29;100.00;100443.63;5114405;28;19924;-76
2021/01/16 02:40:57;;;;;;;;;;;;;;;1.26;100.00;100441.53;5114223;28;20034;-76
2021/01/16 02:43:44;;;;;;;;;;;;;;;1.38;100.00;100441.66;5114421;28;19924;-76
2021/01/16 02:46:11;;;;;;;;;;;;;;;1.42;100.00;100442.59;5113071;28;19924;-76
2021/01/16 02:48:47;;;;;;;;;;;;;;;1.31;100.00;100429.53;5113182;28;19924;-76
2021/01/16 02:51:15;;;;;;;;;;;;;;;1.39;100.00;100426.75;5114215;28;19946;-76
2021/01/16 02:53:44;;;;;;;;;;;;;;;1.32;100.00;100431.16;5114325;28;20369;-76
2021/01/16 02:56:14;;;;;;;;;;;;;;;1.20;100.00;100409.81;5114034;28;20426;-76
2021/01/16 02:58:40;;;;;;;;;;;;;;;1.23;100.00;100395.38;5114178;28;20391;-76
2021/01/16 03:01:07;;;;;;;;;;;;;;;1.38;100.00;100403.09;5096167;28;19931;-76
2021/01/16 03:03:33;;;;;;;;;;;;;;;1.39;100.00;100398.41;5099253;28;19971;-76
2021/01/16 03:06:01;;;;;;;;;;;;;;;1.34;100.00;100385.63;5117058;28;19931;-76
2021/01/16 03:08:28;;;;;;;;;;;;;;;1.46;100.00;100394.00;5118186;28;20267;-76
2021/01/16 03:10:55;;;;;;;;;;;;;;;1.44;100.00;100384.44;5118060;28;19924;-76
2021/01/16 03:13:22;;;;;;;;;;;;;;;1.44;100.00;100363.22;5118494;28;19934;-76
2021/01/16 03:15:49;;;;;;;;;;;;;;;1.47;100.00;100353.50;5116890;28;19924;-76
2021/01/16 03:18:17;;;;;;;;;;;;;;;1.39;100.00;100363.38;5118070;28;20254;-76
2021/01/16 03:20:43;;;;;;;;;;;;;;;1.38;100.00;100348.00;5099840;28;20256;-76
2021/01/16 03:23:10;;;;;;;;;;;;;;;1.32;100.00;100343.84;5116386;28;20390;-76
2021/01/16 03:25:36;;;;;;;;;;;;;;;1.36;100.00;100341.22;5118107;28;19931;-76
2021/01/16 03:28:04;;;;;;;;;;;;;;;1.35;100.00;100343.19;5118342;28;20344;-76
2021/01/16 03:30:31;;;;;;;;;;;;;;;1.34;100.00;100325.03;5117809;28;20370;-76
2021/01/16 03:32:57;;;;;;;;;;;;;;;1.42;100.00;100332.44;5116461;28;20359;-76
2021/01/16 03:35:25;;;;;;;;;;;;;;;1.44;100.00;100321.91;5117811;28;20503;-76
2021/01/16 03:37:52;;;;;;;;;;;;;;;1.54;100.00;100318.78;5116376;28;20329;-76
2021/01/16 03:40:19;;;;;;;;;;;;;;;1.59;100.00;100304.00;5116525;28;20354;-76
2021/01/16 03:42:46;;;;;;;;;;;;;;;1.51;100.00;100291.09;5116487;28;19923;-77
2021/01/16 03:45:16;;;;;;;;;;;;;;;1.52;100.00;100288.00;5115818;28;19981;-76
2021/01/16 03:47:42;;;;;;;;;;;;;;;1.56;100.00;100271.63;5117620;28;19924;-76
2021/01/16 03:50:09;;;;;;;;;;;;;;;1.56;100.00;100261.38;5117484;28;19924;-77
2021/01/16 03:52:36;;;;;;;;;;;;;;;1.52;100.00;100232.91;5099163;28;20426;-77
2021/01/16 03:55:04;;;;;;;;;;;;;;;1.49;100.00;100232.75;5117415;28;19923;-76
2021/01/16 03:57:31;;;;;;;;;;;;;;;1.58;100.00;100236.25;5117271;28;19959;-76
2021/01/16 03:59:57;;;;;;;;;;;;;;;1.64;100.00;100243.16;5117310;28;19959;-76
2021/01/16 04:02:24;;;;;;;;;;;;;;;1.63;100.00;100227.78;5115876;28;19927;-77
2021/01/16 04:04:51;;;;;;;;;;;;;;;1.60;100.00;100223.75;5117125;28;19934;-77
2021/01/16 04:07:18;;;;;;;;;;;;;;;1.60;100.00;100231.22;5117034;28;19969;-77
2021/01/16 04:09:45;;;;;;;;;;;;;;;1.67;100.00;100239.75;5117045;28;19924;-76
2021/01/16 04:12:12;;;;;;;;;;;;;;;1.67;100.00;100207.50;5116918;28;20285;-76
2021/01/16 04:14:39;;;;;;;;;;;;;;;1.52;100.00;100197.09;5115905;28;19931;-76
2021/01/16 04:17:07;;;;;;;;;;;;;;;1.59;100.00;100194.59;5115583;28;20382;-76
2021/01/16 04:19:33;;;;;;;;;;;;;;;1.57;100.00;100185.88;5115715;28;19923;-77
2021/01/16 04:22:00;;;;;;;;;;;;;;;1.60;100.00;100176.94;5115249;28;19945;-76
2021/01/16 04:24:26;;;;;;;;;;;;;;;1.66;100.00;100166.50;5116767;28;19924;-76
2021/01/16 04:26:53;;;;;;;;;;;;;;;1.69;100.00;100199.69;5115543;28;20018;-76
2021/01/16 04:29:20;;;;;;;;;;;;;;;1.76;100.00;100172.41;5115636;28;19923;-76
2021/01/16 04:31:47;;;;;;;;;;;;;;;1.75;100.00;100168.03;5116675;28;19924;-76
2021/01/16 04:34:13;;;;;;;;;;;;;;;1.76;100.00;100175.16;5115394;28;19924;-76
2021/01/16 04:36:40;;;;;;;;;;;;;;;1.80;100.00;100150.50;5081403;28;19927;-76
2021/01/16 04:39:06;;;;;;;;;;;;;;;1.79;100.00;100146.09;5116434;28;19924;-76
2021/01/16 04:41:34;;;;;;;;;;;;;;;1.83;100.00;100145.09;5116432;27;19969;-76
2021/01/16 04:44:01;;;;;;;;;;;;;;;1.86;100.00;100085.75;5115210;28;20089;-76
2021/01/16 04:46:28;;;;;;;;;;;;;;;1.78;100.00;100119.69;5114992;28;20412;-76
2021/01/16 04:49:01;;;;;;;;;;;;;;;1.82;100.00;100126.94;5116279;28;19924;-76
2021/01/16 04:51:32;;;;;;;;;;;;;;;1.80;100.00;100123.72;5116070;28;19927;-76
2021/01/16 04:53:59;;;;;;;;;;;;;;;1.80;100.00;100125.69;5116212;28;19923;-76
2021/01/16 04:56:27;;;;;;;;;;;;;;;1.85;100.00;100119.94;5115958;28;19928;-76
2021/01/16 04:58:54;;;;;;;;;;;;;;;1.90;100.00;100105.94;5115944;28;20503;-76
2021/01/16 05:01:21;;;;;;;;;;;;;;;1.93;100.00;100105.25;5097723;28;19977;-76
2021/01/16 05:03:50;;;;;;;;;;;;;;;1.96;100.00;100099.06;5115850;28;19953;-76
2021/01/16 05:06:18;;;;;;;;;;;;;;;2.02;100.00;100085.84;5115736;28;19930;-76
2021/01/16 05:08:44;;;;;;;;;;;;;;;2.03;100.00;100076.47;5115488;28;19924;-76
2021/01/16 05:11:15;;;;;;;;;;;;;;;2.05;100.00;100082.41;5115718;28;19928;-76
2021/01/16 05:13:43;;;;;;;;;;;;;;;2.00;100.00;100066.13;5114450;28;19927;-76
2021/01/16 05:16:10;;;;;;;;;;;;;;;2.07;100.00;100061.66;5115449;28;19924;-76
2021/01/16 05:18:39;;;;;;;;;;;;;;;2.00;100.00;100020.03;5115368;28;19923;-76
2021/01/16 05:21:06;;;;;;;;;;;;;;;1.94;100.00;100050.97;5114899;28;19970;-76
2021/01/16 05:23:34;;;;;;;;;;;;;;;1.95;100.00;100039.59;5115423;27;19923;-76
2021/01/16 05:26:01;;;;;;;;;;;;;;;1.95;100.00;100019.47;5114137;28;19927;-76
2021/01/16 05:28:30;;;;;;;;;;;;;;;1.93;100.00;100017.06;5114026;28;19924;-76
2021/01/16 05:31:00;;;;;;;;;;;;;;;2.00;100.00;100055.09;5115282;28;19946;-77
2021/01/16 05:33:30;;;;;;;;;;;;;;;1.98;100.00;100040.84;5114009;28;19986;-76
2021/01/16 05:35:58;;;;;;;;;;;;;;;2.04;100.00;100017.41;5113492;28;20386;-77
2021/01/16 05:38:32;;;;;;;;;;;;;;;1.97;100.00;100019.94;5113793;28;19927;-77
2021/01/16 05:40:58;;;;;;;;;;;;;;;1.91;100.00;100007.53;5114934;28;19923;-76
2021/01/16 05:43:25;;;;;;;;;;;;;;;1.82;100.00;100021.41;5115095;28;19924;-78
2021/01/16 05:45:57;;;;;;;;;;;;;;;1.97;100.00;100022.69;5113759;28;19927;-76
2021/01/16 05:48:25;;;;;;;;;;;;;;;2.00;100.00;100005.47;5114545;28;20380;-77
2021/01/16 05:50:52;;;;;;;;;;;;;;;2.02;100.00;100016.94;5114787;28;19924;-76
2021/01/16 05:53:18;;;;;;;;;;;;;;;1.92;100.00;100009.13;5114661;28;19977;-77
2021/01/16 05:55:45;;;;;;;;;;;;;;;1.74;100.00;99987.28;5113802;28;19930;-76
2021/01/16 05:58:14;;;;;;;;;;;;;;;1.78;100.00;99991.00;5114737;28;19927;-76
2021/01/16 06:00:43;;;;;;;;;;;;;;;1.83;100.00;99984.47;5114687;28;19927;-77
2021/01/16 06:03:10;;;;;;;;;;;;;;;1.96;100.00;99976.97;5114349;28;19966;-76
2021/01/16 06:05:37;;;;;;;;;;;;;;;1.92;100.00;99981.56;5114640;28;19923;-76
2021/01/16 06:08:07;;;;;;;;;;;;;;;1.86;100.00;99968.00;5112933;28;20022;-76
2021/01/16 06:10:34;;;;;;;;;;;;;;;1.68;100.00;99963.88;5114941;28;19927;-76
2021/01/16 06:13:11;;;;;;;;;;;;;;;1.84;100.00;99953.78;5114792;28;19923;-76
2021/01/16 06:15:41;;;;;;;;;;;;;;;1.88;100.00;99964.13;5114341;28;19939;-76
2021/01/16 06:18:11;;;;;;;;;;;;;;;1.92;100.00;99944.59;5114193;28;19976;-76
2021/01/16 06:20:38;;;;;;;;;;;;;;;1.96;100.00;99964.00;5114652;28;20022;-76
2021/01/16 06:23:16;;;;;;;;;;;;;;;1.84;100.00;99951.03;5114422;28;20366;-77
2021/01/16 06:25:46;;;;;;;;;;;;;;;1.82;100.00;99950.56;5114432;28;20390;-76
2021/01/16 06:28:15;;;;;;;;;;;;;;;1.89;100.00;99956.31;5114335;28;19924;-77
2021/01/16 06:30:42;;;;;;;;;;;;;;;1.80;100.00;99947.34;5114514;28;19981;-76
2021/01/16 06:33:19;;;;;;;;;;;;;;;1.86;100.00;99947.94;5113668;28;19984;-76
2021/01/16 06:35:53;;;;;;;;;;;;;;;1.79;100.00;99951.25;5114469;28;19924;-76
2021/01/16 06:38:27;;;;;;;;;;;;;;;1.95;100.00;99939.53;5113707;28;20263;-77
2021/01/16 06:40:54;;;;;;;;;;;;;;;1.91;100.00;99949.66;5114384;28;19923;-77
2021/01/16 06:43:21;;;;;;;;;;;;;;;1.89;100.00;99939.75;5114264;28;20332;-76
2021/01/16 06:45:48;;;;;;;;;;;;;;;1.84;100.00;99944.72;5112989;28;20015;-76
2021/01/16 06:48:14;;;;;;;;;;;;;;;1.88;100.00;99943.69;5113879;28;19924;-76
2021/01/16 06:50:41;;;;;;;;;;;;;;;1.91;100.00;99946.91;5114164;28;19928;-76
2021/01/16 06:53:24;;;;;;;;;;;;;;;1.81;100.00;99937.13;5114146;28;19923;-76
2021/01/16 06:56:03;;;;;;;;;;;;;;;1.88;100.00;99937.34;5113193;28;20346;-76
2021/01/16 06:58:36;;;;;;;;;;;;;;;1.83;100.00;99927.38;5112905;28;19927;-76
2021/01/16 07:01:03;;;;;;;;;;;;;;;1.76;100.00;99935.41;5113701;28;20011;-75
2021/01/16 07:03:29;;;;;;;;;;;;;;;1.70;100.00;99933.22;5114294;28;19931;-77
2021/01/16 07:05:56;;;;;;;;;;;;;;;1.72;100.00;99940.03;5114327;28;19924;-76
2021/01/16 07:08:23;;;;;;;;;;;;;;;1.73;100.00;99944.38;5113009;28;19970;-76
2021/01/16 07:10:50;;;;;;;;;;;;;;;1.71;100.00;99943.91;5112944;28;19923;-83
2021/01/16 07:13:18;;;;;;;;;;;;;;;1.77;100.00;99953.53;5062233;28;19924;-75
2021/01/16 07:15:46;;;;;;;;;;;;;;;1.84;100.00;99948.28;5113357;28;19928;-76
2021/01/16 07:18:13;;;;;;;;;;;;;;;1.92;100.00;99959.53;5113760;28;19931;-76
2021/01/16 07:20:40;;;;;;;;;;;;;;;1.88;100.00;99964.13;5113133;28;19930;-75
2021/01/16 07:23:07;;;;;;;;;;;;;;;2.01;100.00;99969.28;5095333;28;19924;-75
2021/01/16 07:25:35;;;;;;;;;;;;;;;2.01;100.00;99974.00;5112117;28;19923;-75
2021/01/16 07:28:01;;;;;;;;;;;;;;;1.97;100.00;99967.56;5113119;28;19938;-76
2021/01/16 07:30:30;;;;;;;;;;;;;;;1.92;100.00;99965.84;5112715;28;19924;-76
2021/01/16 07:33:00;;;;;;;;;;;;;;;1.88;100.00;99962.97;5111750;28;19976;-76
2021/01/16 07:35:27;;;;;;;;;;;;;;;2.01;100.00;99968.47;5111831;28;19997;-76
2021/01/16 07:37:54;;;;;;;;;;;;;;;1.81;100.00;99942.66;5112861;28;20383;-76
2021/01/16 07:40:26;;;;;;;;;;;;;;;1.75;100.00;99960.56;5111887;28;19928;-76
2021/01/16 07:42:54;;;;;;;;;;;;;;;1.73;100.00;99949.88;5112920;28;20072;-76
2021/01/16 07:45:28;;;;;;;;;;;;;;;1.77;100.00;99959.06;5112658;28;20008;-76
2021/01/16 07:47:56;;;;;;;;;;;;;;;1.89;100.00;99967.31;5113047;28;19924;-76
2021/01/16 07:50:24;;;;;;;;;;;;;;;1.94;100.00;99958.03;5115329;28;19931;-76
2021/01/16 07:52:54;;;;;;;;;;;;;;;2.03;100.00;99982.72;5116435;28;20371;-76
2021/01/16 07:55:25;;;;;;;;;;;;;;;1.88;100.00;99980.66;5116497;28;20011;-76
2021/01/16 07:57:59;;;;;;;;;;;;;;;1.82;100.00;99972.63;5116340;28;19963;-76
2021/01/16 08:00:25;;;;;;;;;;;;;;;1.91;100.00;99996.50;5116202;28;19954;-77
2021/01/16 08:03:01;;;;;;;;;;;;;;;1.77;100.00;100008.66;5115139;28;19935;-76
2021/01/16 08:05:37;;;;;;;;;;;;;;;1.73;100.00;100029.78;5115271;28;19928;-77
2021/01/16 08:08:06;;;;;;;;;;;;;;;1.63;100.00;100043.19;5116126;28;19928;-77
2021/01/16 08:10:34;;;;;;;;;;;;;;;1.64;100.00;100075.91;5116431;28;19969;-76
2021/01/16 08:13:05;;;;;;;;;;;;;;;1.71;100.00;100113.94;5115229;28;19972;-76
2021/01/16 08:15:31;;;;;;;;;;;;;;;1.83;100.00;100128.53;5116006;28;19930;-76
2021/01/16 08:17:58;;;;;;;;;;;;;;;1.88;100.00;100147.63;5115825;28;19969;-76
2021/01/16 08:20:30;;;;;;;;;;;;;;;1.76;100.00;100169.63;5114692;28;19970;-77
2021/01/16 08:22:57;;;;;;;;;;;;;;;1.78;100.00;100186.66;5097700;28;19939;-76
2021/01/16 08:25:25;;;;;;;;;;;;;;;1.83;100.00;100232.50;5097962;28;19928;-76
2021/01/16 08:27:52;;;;;;;;;;;;;;;1.77;100.00;100264.94;5114413;28;20406;-75
2021/01/16 08:30:20;;;;;;;;;;;;;;;1.90;100.00;100282.34;5114892;28;19928;-76
2021/01/16 08:32:53;;;;;;;;;;;;;;;1.97;100.00;100307.41;5115663;28;20023;-76
2021/01/16 08:35:20;;;;;;;;;;;;;;;1.84;100.00;100325.03;5115755;28;19927;-76
2021/01/16 08:37:47;;;;;;;;;;;;;;;1.90;100.00;100356.78;5115748;28;19992;-77
2021/01/16 08:40:30;;;;;;;;;;;;;;;1.95;100.00;100367.63;5097337;28;19931;-77
2021/01/16 08:42:57;;;;;;;;;;;;;;;2.11;100.00;100365.03;5115224;28;19924;-77
2021/01/16 08:45:24;;;;;;;;;;;;;;;2.19;100.00;100367.75;5115515;28;19959;-77
2021/01/16 08:47:54;;;;;;;;;;;;;;;2.12;100.00;100372.19;5115596;28;20043;-78
2021/01/16 08:50:21;;;;;;;;;;;;;;;2.26;100.00;100372.72;5115482;28;19949;-78
2021/01/16 08:52:48;;;;;;;;;;;;;;;2.24;100.00;100380.53;5115347;28;20294;-77
2021/01/16 08:55:14;;;;;;;;;;;;;;;2.29;100.00;100370.09;5115368;28;19931;-75
2021/01/16 08:57:41;;;;;;;;;;;;;;;2.40;100.00;100351.16;5115095;28;19931;-77
2021/01/16 09:00:18;;;;;;;;;;;;;;;2.31;100.00;100348.50;5114670;28;19930;-76
2021/01/16 09:03:04;;;;;;;;;;;;;;;2.41;100.00;100361.09;5115284;28;20003;-76
2021/01/16 09:05:32;;;;;;;;;;;;;;;2.38;100.00;100359.00;5113277;28;19924;-75
2021/01/16 09:08:00;;;;;;;;;;;;;;;2.60;100.00;100364.94;5114799;28;19923;-75
2021/01/16 09:10:27;;;;;;;;;;;;;;;2.40;100.00;100362.19;5113652;28;19924;-75
2021/01/16 09:12:54;;;;;;;;;;;;;;;2.38;100.00;100356.25;5114424;28;19923;-75
2021/01/16 09:15:25;;;;;;;;;;;;;;;2.54;100.00;100354.44;5114570;27;19931;-77
2021/01/16 09:17:59;;;;;;;;;;;;;;;2.40;100.00;100323.59;5114667;28;19923;-78
2021/01/16 09:20:26;;;;;;;;;;;;;;;2.45;100.00;100340.75;5113505;28;19931;-77
2021/01/16 09:22:53;;;;;;;;;;;;;;;2.46;100.00;100338.78;5114717;28;19953;-75
2021/01/16 09:25:20;;;;;;;;;;;;;;;2.57;100.00;100340.78;5096517;28;20026;-76
2021/01/16 09:27:48;;;;;;;;;;;;;;;2.30;100.00;100321.25;5114431;28;19931;-76
2021/01/16 09:30:22;;;;;;;;;;;;;;;2.25;100.00;100310.41;5114638;28;20294;-76
2021/01/16 09:32:51;;;;;;;;;;;;;;;2.19;100.00;100306.25;5114729;28;20290;-76
2021/01/16 09:35:37;;;;;;;;;;;;;;;2.04;100.00;100293.91;5114525;28;19923;-76
2021/01/16 09:38:14;;;;;;;;;;;;;;;2.07;100.00;100306.22;5114325;28;20390;-76
2021/01/16 09:40:40;;;;;;;;;;;;;;;1.95;100.00;100293.19;5114083;28;19976;-76
2021/01/16 09:43:17;;;;;;;;;;;;;;;2.16;100.00;100306.94;5114420;28;20264;-76
2021/01/16 09:45:53;;;;;;;;;;;;;;;2.28;100.00;100309.75;5114461;28;19931;-76
2021/01/16 09:48:39;;;;;;;;;;;;;;;2.33;100.00;100301.28;5114441;28;20035;-76
2021/01/16 09:51:07;;;;;;;;;;;;;;;2.00;100.00;100292.16;5112118;28;19949;-76
2021/01/16 09:53:33;;;;;;;;;;;;;;;1.92;100.00;100287.53;5114807;28;20378;-76
2021/01/16 09:56:00;;;;;;;;;;;;;;;2.01;100.00;100288.25;5113250;28;19928;-76
2021/01/16 09:58:30;;;;;;;;;;;;;;;2.03;100.00;100283.22;5112791;28;19924;-76
2021/01/16 10:01:17;;;;;;;;;;;;;;;1.96;100.00;100283.75;5114542;28;19974;-76
2021/01/16 10:03:44;;;;;;;;;;;;;;;1.91;100.00;100267.41;5114670;28;19965;-76
2021/01/16 10:06:17;;;;;;;;;;;;;;;1.93;100.00;100276.16;5114664;28;19971;-76
2021/01/16 10:08:43;;;;;;;;;;;;;;;1.96;100.00;100280.19;5114659;28;20416;-76
2021/01/16 10:11:11;;;;;;;;;;;;;;;2.19;100.00;100270.41;5114137;28;19953;-76
2021/01/16 10:13:39;;;;;;;;;;;;;;;2.30;100.00;100269.66;5096066;28;19924;-76
2021/01/16 10:16:07;;;;;;;;;;;;;;;2.41;100.00;100270.03;5114608;28;19924;-76
2021/01/16 10:18:34;;;;;;;;;;;;;;;2.30;100.00;100266.09;5114386;28;20015;-76
2021/01/16 10:21:19;;;;;;;;;;;;;;;2.25;100.00;100258.03;5114159;28;20294;-77
2021/01/16 10:23:46;;;;;;;;;;;;;;;2.13;100.00;100246.94;5113780;28;20023;-77
2021/01/16 10:26:17;;;;;;;;;;;;;;;2.15;100.00;100244.69;5113440;28;19957;-77
2021/01/16 10:28:46;;;;;;;;;;;;;;;2.19;100.00;100229.03;5114329;28;19946;-77
2021/01/16 10:31:12;;;;;;;;;;;;;;;2.22;100.00;100229.19;5114364;28;19928;-77
2021/01/16 10:33:40;;;;;;;;;;;;;;;2.36;100.00;100223.34;5114323;28;20370;-78
2021/01/16 10:36:12;;;;;;;;;;;;;;;2.47;100.00;100219.03;5111125;28;19963;-77
2021/01/16 10:38:43;;;;;;;;;;;;;;;2.47;100.00;100196.94;5105389;28;19930;-77
2021/01/16 10:41:12;;;;;;;;;;;;;;;2.55;100.00;100191.31;5106903;28;19976;-77
2021/01/16 10:43:39;;;;;;;;;;;;;;;2.74;100.00;100180.50;5107567;28;19924;-77
2021/01/16 10:46:11;;;;;;;;;;;;;;;2.76;100.00;100177.41;5108817;28;19977;-77
2021/01/16 10:48:38;;;;;;;;;;;;;;;2.77;100.00;100173.50;5108422;28;19932;-77
2021/01/16 10:51:09;;;;;;;;;;;;;;;2.80;100.00;100167.31;5110307;28;19934;-77
2021/01/16 10:53:36;;;;;;;;;;;;;;;2.82;100.00;100157.50;5091600;28;19927;-77
2021/01/16 10:56:07;;;;;;;;;;;;;;;2.97;100.00;100144.97;5109751;28;19924;-77
2021/01/16 10:58:34;;;;;;;;;;;;;;;2.79;100.00;100138.06;5106058;28;19927;-77
2021/01/16 11:01:00;;;;;;;;;;;;;;;2.69;100.00;100122.00;5109944;28;19931;-76
2021/01/16 11:03:28;;;;;;;;;;;;;;;2.66;100.00;100114.41;5109484;28;20026;-77
2021/01/16 11:05:56;;;;;;;;;;;;;;;3.06;100.00;100112.53;5091836;28;19942;-77
2021/01/16 11:08:27;;;;;;;;;;;;;;;3.47;100.00;100098.31;5109897;28;19931;-77
2021/01/16 11:10:53;;;;;;;;;;;;;;;3.74;100.00;100086.47;5109680;28;20435;-77
2021/01/16 11:13:20;;;;;;;;;;;;;;;4.11;100.00;100074.00;5108082;28;19926;-78
2021/01/16 11:15:50;;;;;;;;;;;;;;;3.86;100.00;100071.75;5108913;28;19931;-77
2021/01/16 11:18:27;;;;;;;;;;;;;;;4.10;100.00;100061.34;5109554;28;19927;-77
2021/01/16 11:20:59;;;;;;;;;;;;;;;4.38;100.00;100050.97;5108247;28;19961;-76
2021/01/16 11:23:29;;;;;;;;;;;;;;;4.49;100.00;100046.50;5110295;28;19924;-77
2021/01/16 11:25:56;;;;;;;;;;;;;;;4.58;100.00;100032.47;5095496;28;19924;-76
2021/01/16 11:28:24;;;;;;;;;;;;;;;4.71;100.00;100029.22;5112599;28;19931;-76
2021/01/16 11:31:01;;;;;;;;;;;;;;;4.69;100.00;100017.72;5114579;28;20363;-76
2021/01/16 11:33:28;;;;;;;;;;;;;;;4.73;100.00;100012.25;5116640;28;19931;-74
2021/01/16 11:36:03;;;;;;;;;;;;;;;4.80;100.00;99993.81;5115829;28;19997;-74
2021/01/16 11:38:46;;;;;;;;;;;;;;;4.88;100.00;99998.34;5116307;28;19924;-75
2021/01/16 11:41:38;;;;;;;;;;;;;;;4.90;100.00;99989.66;5117294;28;20488;-74
2021/01/16 11:44:04;;;;;;;;;;;;;;;4.91;100.00;99981.00;5106087;28;19927;-75
2021/01/16 11:46:31;;;;;;;;;;;;;;;4.92;100.00;99984.59;5113243;28;20363;-74
2021/01/16 11:48:57;;;;;;;;;;;;;;;4.97;100.00;99968.47;5111953;28;19959;-74
2021/01/16 11:51:25;;;;;;;;;;;;;;;4.93;100.00;99961.25;5112548;28;19928;-74
2021/01/16 11:53:55;;;;;;;;;;;;;;;4.93;100.00;99962.06;5113247;28;19978;-76
2021/01/16 11:56:23;;;;;;;;;;;;;;;4.97;100.00;99960.16;5113237;28;20027;-76
2021/01/16 11:58:52;;;;;;;;;;;;;;;5.05;100.00;99964.69;5111328;28;19923;-77
2021/01/16 12:01:18;;;;;;;;;;;;;;;5.10;100.00;99950.50;5112274;28;19923;-76
2021/01/16 12:03:45;;;;;;;;;;;;;;;5.11;100.00;99945.78;5111676;28;19924;-76
2021/01/16 12:06:12;;;;;;;;;;;;;;;5.15;100.00;99941.91;5111478;28;19976;-78
2021/01/16 12:08:41;;;;;;;;;;;;;;;5.15;100.00;99947.47;5111203;28;19947;-77
2021/01/16 12:11:08;;;;;;;;;;;;;;;5.16;100.00;99938.00;5112770;28;19927;-74
2021/01/16 12:13:34;;;;;;;;;;;;;;;5.19;100.00;99936.44;5112552;28;19923;-77
2021/01/16 12:16:01;;;;;;;;;;;;;;;5.21;100.00;99929.38;5112894;28;20374;-74
2021/01/16 12:18:27;;;;;;;;;;;;;;;5.27;100.00;99927.13;5112161;28;20600;-75
2021/01/16 12:20:54;;;;;;;;;;;;;;;5.31;100.00;99925.19;5107537;28;20382;-74
2021/01/16 12:23:21;;;;;;;;;;;;;;;5.32;100.00;99924.84;5113113;28;19977;-73
2021/01/16 12:25:51;;;;;;;;;;;;;;;5.37;100.00;99927.31;5106728;28;19949;-74
2021/01/16 12:28:23;;;;;;;;;;;;;;;5.31;100.00;99919.66;5116252;28;20342;-75
2021/01/16 12:30:50;;;;;;;;;;;;;;;5.36;100.00;99914.59;5115251;28;20040;-74
2021/01/16 12:33:20;;;;;;;;;;;;;;;5.39;100.00;99916.63;5116738;28;19923;-75
2021/01/16 12:35:46;;;;;;;;;;;;;;;5.39;100.00;99913.88;5116056;28;20366;-75
2021/01/16 12:38:13;;;;;;;;;;;;;;;5.40;100.00;99915.47;5115523;28;19934;-75
2021/01/16 12:40:39;;;;;;;;;;;;;;;5.42;100.00;99907.59;5116609;28;19924;-74
2021/01/16 12:43:12;;;;;;;;;;;;;;;5.43;100.00;99909.19;5115358;28;19924;-75
2021/01/16 12:45:39;;;;;;;;;;;;;;;5.48;100.00;99908.88;5115157;28;19930;-74
2021/01/16 12:48:05;;;;;;;;;;;;;;;5.45;100.00;99909.63;5116133;28;19924;-75